createdAt,value
2018-10-09T00:04:02.365Z,9.20
2018-10-09T00:08:43.548Z,9.10
2018-10-09T00:13:23.543Z,9.10
2018-10-09T00:18:03.393Z,9.20
2018-10-09T00:22:43.432Z,9.10
2018-10-09T00:27:23.823Z,9.00
2018-10-09T00:32:03.728Z,9.00
2018-10-09T00:36:43.744Z,9.00
2018-10-09T00:41:24.398Z,9.00
2018-10-09T00:46:04.595Z,8.90
2018-10-09T00:50:46.038Z,8.90
2018-10-09T00:55:25.676Z,8.80
2018-10-09T01:00:06.744Z,8.70
2018-10-09T01:04:47.336Z,8.80
2018-10-09T01:09:27.221Z,8.80
2018-10-09T01:14:07.176Z,8.70
2018-10-09T01:18:47.864Z,8.60
2018-10-09T01:23:27.855Z,8.60
2018-10-09T01:28:08.675Z,8.60
2018-10-09T01:32:48.743Z,8.70
2018-10-09T01:37:29.267Z,8.80
2018-10-09T01:42:09.247Z,8.70
2018-10-09T01:46:49.792Z,8.60
2018-10-09T01:51:31.413Z,8.40
2018-10-09T01:56:11.443Z,8.30
2018-10-09T02:00:52.247Z,8.40
2018-10-09T02:05:32.751Z,8.40
2018-10-09T02:10:12.555Z,8.40
2018-10-09T02:14:52.394Z,8.30
2018-10-09T02:19:32.423Z,8.30
2018-10-09T02:24:13.235Z,8.20
2018-10-09T02:28:54.612Z,8.20
2018-10-09T02:33:35.660Z,8.20
2018-10-09T02:38:18.720Z,8.20
2018-10-09T02:43:00.364Z,8.10
2018-10-09T02:47:40.054Z,8.20
2018-10-09T02:52:23.036Z,8.20
2018-10-09T02:57:04.155Z,8.10
2018-10-09T03:01:44.122Z,8.10
2018-10-09T03:06:25.205Z,8.00
2018-10-09T03:11:06.168Z,8.00
2018-10-09T03:15:46.868Z,8.00
2018-10-09T03:20:27.436Z,7.90
2018-10-09T03:25:08.629Z,7.90
2018-10-09T03:29:50.551Z,8.00
2018-10-09T03:34:31.848Z,8.00
2018-10-09T03:39:14.367Z,8.00
2018-10-09T03:43:55.423Z,7.90
2018-10-09T03:48:36.452Z,7.90
2018-10-09T03:53:16.478Z,7.80
2018-10-09T03:57:56.354Z,7.70
2018-10-09T04:02:36.247Z,7.70
2018-10-09T04:07:16.378Z,7.60
2018-10-09T04:11:56.497Z,7.70
2018-10-09T04:16:36.323Z,7.70
2018-10-09T04:21:16.439Z,7.70
2018-10-09T04:25:56.919Z,7.70
2018-10-09T04:30:36.859Z,7.60
2018-10-09T04:35:17.036Z,7.60
2018-10-09T04:39:57.123Z,7.60
2018-10-09T04:44:36.995Z,7.50
2018-10-09T04:49:17.695Z,7.50
2018-10-09T04:53:58.417Z,7.50
2018-10-09T04:58:39.919Z,7.40
2018-10-09T05:03:22.703Z,7.40
2018-10-09T05:08:03.188Z,7.40
2018-10-09T05:12:43.656Z,7.40
2018-10-09T05:17:24.736Z,7.30
2018-10-09T05:22:04.748Z,7.30
2018-10-09T05:26:44.514Z,7.30
2018-10-09T05:31:24.545Z,7.20
2018-10-09T05:36:05.421Z,7.20
2018-10-09T05:40:45.423Z,7.10
2018-10-09T05:45:25.695Z,7.10
2018-10-09T05:50:06.819Z,7.10
2018-10-09T05:54:47.191Z,7.10
2018-10-09T05:59:27.032Z,7.10
2018-10-09T06:04:07.078Z,7.10
2018-10-09T06:08:46.979Z,7.00
2018-10-09T06:13:27.123Z,7.10
2018-10-09T06:18:07.311Z,7.10
2018-10-09T06:22:48.595Z,7.20
2018-10-09T06:27:28.827Z,7.30
2018-10-09T06:32:08.601Z,7.40
2018-10-09T06:36:49.190Z,7.60
2018-10-09T06:41:30.213Z,7.80
2018-10-09T06:46:10.670Z,8.10
2018-10-09T06:50:51.119Z,8.40
2018-10-09T06:55:31.249Z,8.80
2018-10-09T07:00:13.144Z,9.80
2018-10-09T07:04:53.388Z,11.30
2018-10-09T07:09:33.513Z,12.70
2018-10-09T07:14:13.258Z,14.30
2018-10-09T07:18:53.851Z,15.80
2018-10-09T07:23:33.696Z,16.50
2018-10-09T07:28:15.023Z,17.40
2018-10-09T07:32:54.861Z,18.10
2018-10-09T07:37:36.651Z,18.70
2018-10-09T07:42:17.892Z,19.40
2018-10-09T07:46:58.715Z,19.90
2018-10-09T07:51:39.382Z,20.40
2018-10-09T07:56:19.425Z,20.20
2018-10-09T08:00:59.557Z,20.20
2018-10-09T08:05:39.312Z,21.10
2018-10-09T08:10:20.375Z,21.40
2018-10-09T08:15:01.261Z,21.70
2018-10-09T08:19:41.457Z,22.40
2018-10-09T08:24:21.416Z,23.80
2018-10-09T08:29:02.351Z,24.80
2018-10-09T08:33:42.770Z,25.30
2018-10-09T08:38:22.523Z,25.90
2018-10-09T08:43:03.343Z,26.20
2018-10-09T08:47:44.842Z,26.30
2018-10-09T08:52:24.808Z,26.90
2018-10-09T08:57:06.024Z,27.10
2018-10-09T09:01:46.503Z,27.60
2018-10-09T09:06:26.611Z,27.30
2018-10-09T09:11:06.649Z,27.20
2018-10-09T09:15:46.772Z,27.90
2018-10-09T09:20:27.781Z,29.00
2018-10-09T09:25:08.368Z,29.70
2018-10-09T09:29:48.235Z,30.00
2018-10-09T09:34:28.152Z,29.00
2018-10-09T09:39:09.450Z,27.90
2018-10-09T09:43:49.611Z,27.30
2018-10-09T09:48:30.655Z,27.00
2018-10-09T09:53:10.697Z,26.90
2018-10-09T09:57:52.787Z,27.70
2018-10-09T10:02:33.693Z,28.90
2018-10-09T10:07:14.621Z,29.40
2018-10-09T10:11:55.228Z,30.50
2018-10-09T10:16:36.201Z,31.30
2018-10-09T10:21:16.197Z,32.20
2018-10-09T10:25:56.798Z,33.60
2018-10-09T10:30:38.087Z,33.40
2018-10-09T10:35:20.655Z,32.40
2018-10-09T10:40:01.304Z,31.60
2018-10-09T10:44:42.205Z,30.90
2018-10-09T10:49:22.231Z,30.70
2018-10-09T10:54:04.490Z,30.40
2018-10-09T10:58:46.337Z,29.80
2018-10-09T11:03:28.023Z,29.70
2018-10-09T11:08:08.201Z,29.50
2018-10-09T11:12:49.381Z,29.90
2018-10-09T11:17:30.185Z,30.20
2018-10-09T11:22:10.736Z,29.50
2018-10-09T11:26:51.809Z,29.40
2018-10-09T11:31:31.872Z,30.50
2018-10-09T11:36:12.924Z,31.20
2018-10-09T11:40:53.629Z,31.50
2018-10-09T11:45:33.648Z,31.00
2018-10-09T11:50:15.424Z,30.40
2018-10-09T11:54:55.080Z,30.20
2018-10-09T11:59:35.498Z,30.10
2018-10-09T12:04:16.245Z,30.00
2018-10-09T12:08:56.322Z,29.90
2018-10-09T12:13:36.728Z,29.90
2018-10-09T12:18:17.376Z,29.50
2018-10-09T12:22:58.353Z,29.70
2018-10-09T12:27:38.148Z,29.50
2018-10-09T12:32:20.999Z,29.20
2018-10-09T12:37:01.060Z,29.50
2018-10-09T12:41:40.968Z,29.10
2018-10-09T12:46:25.864Z,27.30
2018-10-09T12:51:07.256Z,25.60
2018-10-09T12:55:47.365Z,24.60
2018-10-09T13:00:27.252Z,23.80
2018-10-09T13:05:07.232Z,23.20
2018-10-09T13:09:46.980Z,22.80
2018-10-09T13:14:26.767Z,22.50
2018-10-09T13:19:23.225Z,22.20
2018-10-09T13:24:03.238Z,22.10
2018-10-09T13:28:43.516Z,22.30
2018-10-09T13:33:23.316Z,22.50
2018-10-09T13:38:03.322Z,22.50
2018-10-09T13:42:43.904Z,22.70
2018-10-09T13:47:23.755Z,23.00
2018-10-09T13:52:03.700Z,22.90
2018-10-09T13:56:43.617Z,22.70
2018-10-09T14:01:23.542Z,22.70
2018-10-09T14:06:03.342Z,22.50
2018-10-09T14:10:43.229Z,22.40
2018-10-09T14:15:23.168Z,22.30
2018-10-09T14:20:03.136Z,22.30
2018-10-09T14:24:43.138Z,22.30
2018-10-09T14:29:22.835Z,22.20
2018-10-09T14:34:02.776Z,22.10
2018-10-09T14:38:42.762Z,22.00
2018-10-09T14:43:22.760Z,22.00
2018-10-09T14:48:02.692Z,21.90
2018-10-09T14:52:42.658Z,21.80
2018-10-09T14:57:23.358Z,21.80
2018-10-09T15:02:03.204Z,21.70
2018-10-09T15:06:43.196Z,21.60
2018-10-09T15:11:23.453Z,21.50
2018-10-09T15:16:03.320Z,21.40
2018-10-09T15:20:43.348Z,21.30
2018-10-09T15:25:23.215Z,21.20
2018-10-09T15:30:03.201Z,21.10
2018-10-09T15:34:43.267Z,20.80
2018-10-09T15:39:23.200Z,20.70
2018-10-09T15:44:02.976Z,20.50
2018-10-09T15:48:42.809Z,20.30
2018-10-09T15:53:22.573Z,20.10
2018-10-09T15:58:02.437Z,19.90
2018-10-09T16:02:44.905Z,19.70
2018-10-09T16:12:40.365Z,19.10
2018-10-09T16:17:20.101Z,18.80
2018-10-09T16:21:59.932Z,18.40
2018-10-09T16:26:40.100Z,18.20
2018-10-09T16:31:19.992Z,17.90
2018-10-09T16:35:59.851Z,17.70
2018-10-09T16:40:39.703Z,17.50
2018-10-09T16:45:20.349Z,17.20
2018-10-09T16:50:00.244Z,16.90
2018-10-09T16:54:40.661Z,16.60
2018-10-09T16:59:20.584Z,16.40
2018-10-09T17:04:00.408Z,16.20
2018-10-09T17:08:40.321Z,16.10
2018-10-09T17:13:20.145Z,16.00
2018-10-09T17:17:59.881Z,15.80
2018-10-09T17:22:39.588Z,15.60
2018-10-09T17:27:19.415Z,15.50
2018-10-09T17:31:59.170Z,15.30
2018-10-09T17:36:39.137Z,15.10
2018-10-09T17:41:19.212Z,14.90
2018-10-09T17:45:59.380Z,14.80
2018-10-09T17:50:40.998Z,14.60
2018-10-09T17:55:21.053Z,14.50
2018-10-09T18:00:04.744Z,14.50
2018-10-09T18:04:48.645Z,14.40
2018-10-09T18:09:28.699Z,14.30
2018-10-09T18:14:09.340Z,14.20
2018-10-09T18:18:48.960Z,14.00
2018-10-09T18:23:29.156Z,13.90
2018-10-09T18:28:09.311Z,13.80
2018-10-09T18:32:49.453Z,13.70
2018-10-09T18:37:29.068Z,13.60
2018-10-09T18:42:09.081Z,13.40
2018-10-09T18:46:48.964Z,13.40
2018-10-09T18:51:29.442Z,13.30
2018-10-09T18:56:09.451Z,13.20
2018-10-09T19:00:49.933Z,13.00
2018-10-09T19:05:29.861Z,13.00
2018-10-09T19:10:10.618Z,12.90
2018-10-09T19:14:50.760Z,12.80
2018-10-09T19:19:30.600Z,12.70
2018-10-09T19:24:10.648Z,12.60
2018-10-09T19:28:50.452Z,12.50
2018-10-09T19:33:30.309Z,12.40
2018-10-09T19:38:11.577Z,12.30
2018-10-09T19:42:51.481Z,12.20
2018-10-09T19:47:35.172Z,12.20
2018-10-09T19:52:14.935Z,12.20
2018-10-09T19:56:55.046Z,12.10
2018-10-09T20:01:34.956Z,12.00
2018-10-09T20:06:15.465Z,12.00
2018-10-09T20:10:55.675Z,11.90
2018-10-09T20:15:36.536Z,11.80
2018-10-09T20:20:16.975Z,11.80
2018-10-09T20:24:57.099Z,11.70
2018-10-09T20:29:37.612Z,11.60
2018-10-09T20:34:18.645Z,11.50
2018-10-09T20:39:00.235Z,11.50
2018-10-09T20:43:41.966Z,11.40
2018-10-09T20:48:22.323Z,11.40
2018-10-09T20:53:03.144Z,11.30
2018-10-09T20:57:42.824Z,11.20
2018-10-09T21:02:23.116Z,11.20
2018-10-09T21:07:03.580Z,11.10
2018-10-09T21:11:43.755Z,11.10
2018-10-09T21:16:24.236Z,11.00
2018-10-09T21:21:04.575Z,10.90
2018-10-09T21:25:45.053Z,10.90
2018-10-09T21:30:24.686Z,10.90
2018-10-09T21:35:06.625Z,10.80
2018-10-09T21:39:47.107Z,10.80
2018-10-09T21:44:27.133Z,10.70
2018-10-09T21:49:07.380Z,10.60
2018-10-09T21:53:47.435Z,10.60
2018-10-09T21:58:27.762Z,10.50
2018-10-09T22:03:07.589Z,10.50
2018-10-09T22:07:47.640Z,10.50
2018-10-09T22:12:28.716Z,10.40
2018-10-09T22:17:09.724Z,10.30
2018-10-09T22:21:49.689Z,10.30
2018-10-09T22:26:29.538Z,10.20
2018-10-09T22:31:10.329Z,10.20
2018-10-09T22:35:50.179Z,10.10
2018-10-09T22:40:30.100Z,10.10
2018-10-09T22:45:11.501Z,10.10
2018-10-09T22:49:52.112Z,10.10
2018-10-09T22:54:32.084Z,10.00
2018-10-09T22:59:13.040Z,9.90
2018-10-09T23:03:54.294Z,9.90
2018-10-09T23:08:34.437Z,9.90
2018-10-09T23:13:15.348Z,9.90
2018-10-09T23:17:55.085Z,9.80
2018-10-09T23:22:34.752Z,9.70
2018-10-09T23:27:15.683Z,9.70
2018-10-09T23:31:56.897Z,9.60
2018-10-09T23:36:36.921Z,9.60
2018-10-09T23:41:17.660Z,9.50
2018-10-09T23:45:57.636Z,9.50
2018-10-09T23:50:39.509Z,9.40
2018-10-09T23:55:20.547Z,9.40
